Tiempo atmosférico en la estación meteorológica de Cuenca, Cuenca (945 m.)



Fecha
DESCASC
Temp. máxima en grados centígrados (hora)
DESCASC
Temp. mínima en grados centígrados (hora)
DESCASC
Temp. media en grados centígrados
DESCASC
Racha de viento máxima en m/sg (hora)
DESCASC
Velocidad máxima media en intervalos de 10 minutos(hora)
DESCASC
Precipitaciones diarias en mm
DESCASC
Precipitaciones de 00:00 a 06:00 en mm
DESCASC
Precipitaciones de 06:00 a 12:00 en mm
DESCASC
Precipitaciones de 12:00 a 18:00 en mm
DESCASC
Precipitaciones de 18:00 a 24:00 en mm
DESCASC
25-04-2019 11.2 (15:50) 5.6 (10:20) 8.4 11.11 (16:00) 6.11 (02:50) 15.4 6.2 6 3.2 0
24-04-2019 11.3 (19:30) 3.2 (05:40) 7.3 13.61 (20:50) 5.83 (20:50) 4 1 0.4 0 2.6
23-04-2019 10.8 (18:10) 5.2 (23:50) 8 14.17 (18:40) 5.83 (18:40) 4 0.2 1.6 1.4 0.8
22-04-2019 15.5 (14:40) 6.8 (00:00) 11.2 6.67 (14:50) 2.78 (15:00) 3 3 0 0 0
21-04-2019 10.7 (15:40) 5.9 (00:00) 8.3 6.94 (10:00) 3.06 (17:30) 1 0 0 0.2 0.8
20-04-2019 14.3 (15:00) 6.5 (00:00) 10.4 10.28 (01:20) 4.72 (07:00) 4.8 0 0 0.4 4.4
19-04-2019 9.1 (23:59) 7.1 (00:00) 8.1 4.72 (16:40) 2.5 (15:20) 24.6 0 5 15.4 4.2
18-04-2019 12.3 (00:00) 7.3 (00:00) 9.8 7.78 (19:30) 3.33 (19:30) 25.6 0 6.6 14.2 4.8
17-04-2019 20.1 (16:10) 6.8 (00:00) 13.5 11.94 (16:10) 6.11 (18:30) 0 0 0 0 0
16-04-2019 22.1 (17:20) 5.9 (00:00) 14 8.89 (22:10) 5 (23:50) 0 0 0 0 0
15-04-2019 23.3 (18:30) 9.9 (00:00) 16.6 15.56 (21:10) 5.83 (21:10) 1.8 0 0 0 1.8
14-04-2019 23.4 (18:40) 3.6 (00:00) 13.5 7.5 (17:20) 2.78 (17:10) 0 0 0 0 0
13-04-2019 20.6 (17:30) 0.4 (00:00) 10.5 8.61 (15:10) 3.89 (14:30) 0 0 0 0 0
12-04-2019 17 (18:10) 1.4 (00:00) 9.2 8.89 (16:00) 3.61 (16:10) 0 0 0 0 0
11-04-2019 15.2 (18:10) 1.7 (00:00) 8.4 8.61 (13:20) 3.06 (12:30) 0 0 0 0 0
10-04-2019 11.4 (18:40) 3.9 (00:00) 7.6 10.83 (18:50) 3.61 (15:00) 1.8 0 0 1.8 0
09-04-2019 11.3 (15:00) 5.1 (00:00) 8.2 11.11 (15:10) 5 (17:30) 2.6 0 0 2.6 0
08-04-2019 14.6 (18:50) 5.6 (00:00) 10.1 8.89 (15:30) 3.89 (15:20) 2.8 0.4 2.2 0.2 0
07-04-2019 12.2 (16:10) 2.8 (00:00) 7.5 8.89 (10:10) 4.17 (09:50) 0.2 0 0.2 0 0
06-04-2019 7.6 (17:50) 2.1 (00:00) 4.8 12.5 (21:30) 4.72 (17:50) 3.6 0 0 1.6 2
05-04-2019 7.9 (00:50) 2.5 (00:00) 5.2 10.56 (19:30) 5.28 (19:30) 3.6 0 0 1.6 2
04-04-2019 13.3 (17:30) 0.4 (00:00) 6.9 7.78 (00:10) 3.33 (00:10) 0 0 0 0 0
03-04-2019 15.1 (14:50) 3.6 (00:00) 9.4 9.72 (17:50) 4.17 (14:40) 0 0 0 0 0
02-04-2019 13.5 (13:30) 6.4 (00:00) 10 9.17 (19:00) 4.72 (19:00) 9.6 0 0.2 7.4 2
01-04-2019 12.2 (16:30) 7 (00:00) 9.6 7.5 (14:00) 4.17 (14:00) 3.4 1.6 1.4 0 0.4
31-03-2019 8.7 (14:20) 5.7 (00:00) 7.2 6.11 (13:40) 3.06 (06:00) 9.2 0 5.4 3.2 0.6
30-03-2019 18.4 (16:10) 1.4 (00:00) 9.9 8.61 (20:50) 5 (19:30) 0 0 0 0 0
29-03-2019 16.5 (15:50) 2.3 (00:00) 9.4 10.28 (14:50) 5.56 (10:20) 0 0 0 0 0
28-03-2019 18.9 (17:20) 0.4 (00:00) 9.6 6.94 (22:40) 3.33 (18:40) 0 0 0 0 0
27-03-2019 18.6 (16:20) 2.5 (00:00) 10.6 6.11 (20:20) 3.33 (20:20) 0 0 0 0 0

Gráficas

Temp. máximas Temp. mínimas Temp. medias Precipitaciones Rachas de viento máximas Velocidades máximas media en intervalos de 10 minutos

Datos horarios

Fecha y hora oficial Temperatura (ºC) Velocidad del viento (km/h) Dirección del viento Racha (km/h) Dirección de racha Precipitación (mm) Presión (hPa) Tendencia (hPa) Humedad (%)
2019-04-25 23:00:00 7 5 Noroeste 13 Sudoeste 0 909 3 73
2019-04-25 22:00:00 7.5 4 Noroeste 18 Sudoeste 0 908 2.3 72
2019-04-25 21:00:00 8.3 8 Oeste 31 Oeste 0 906.8 1.8 69
2019-04-25 20:00:00 9.3 12 Oeste 33 Noroeste 0 906 1.6 63
2019-04-25 19:00:00 10.5 16 Oeste 36 Oeste 0 905.7 1.4 64
2019-04-25 18:00:00 10.6 12 Noroeste 37 Noroeste 1 905 0.5 71
2019-04-25 17:00:00 10 9 Noroeste 37 Oeste 0.6 904.4 0.1 85
2019-04-25 16:00:00 10.4 22 Oeste 40 Oeste 0 904.3 0.2 68
2019-04-25 15:00:00 8.2 13 Oeste 35 Oeste 1.6 904.5 0.2 87
2019-04-25 14:00:00 9.2 14 Oeste 29 Oeste 0 904.3 0.4 75
2019-04-25 13:00:00 9.7 10 Oeste 24 Sudoeste 0 904.1 0.7 73
2019-04-25 12:00:00 7.8 7 Sudoeste 13 Sur 0 904.3 2 92
2019-04-25 11:00:00 5.9 4 Noroeste 18 Oeste 0.6 903.9 2.3 94
2019-04-25 10:00:00 5.7 7 Noroeste 18 Noroeste 1 903.4 2.2 94
2019-04-25 09:00:00 5.9 5 Noroeste 17 Norte 1 902.3 1.3 96
2019-04-25 08:00:00 6.2 6 Norte 17 Noroeste 1.8 901.6 0.9 95
2019-04-25 07:00:00 6.8 4 Norte 18 Norte 1.6 901.2 1.6 96
2019-04-25 06:00:00 7.6 7 Noroeste 18 Norte 0.8 901 0.9 94
2019-04-25 05:00:00 8.8 10 Noroeste 36 Sudoeste 1.2 900.7 0 92
2019-04-25 04:00:00 9.2 17 Sur 34 Sudoeste 1 899.6 -1.4 97
2019-04-25 03:00:00 9.3 18 Sur 38 Sur 1.2 900.1 -1.1 96
2019-04-25 02:00:00 9.1 15 Sur 34 Sur 1 900.7 -0.7 98
2019-04-25 01:00:00 9.2 16 Sur 38 Sudoeste 1 901 0.2 97
2019-04-25 00:00:00 9.3 13 Sur 32 Sudoeste 1.2 901.2 1 96
2019-04-24 23:00:00 9.3 15 Sur 40 Sur 1.4 901.4 1.5 95
2019-04-24 22:00:00 10.3 18 Sur 39 Sur 0 900.8 1.1 84
2019-04-24 21:00:00 10.9 19 Sur 49 Sudoeste 0 900.2 0.8 77
2019-04-24 20:00:00 11.3 20 Sur 42 Sudoeste 0 899.9 0.3 75
2019-04-24 19:00:00 11.1 18 Sur 43 Sudoeste 0 899.7 -0.2 74
2019-04-24 18:00:00 10.9 18 Sur 42 Sudoeste 0 899.4 -0.7 77
2019-04-24 17:00:00 9.9 15 Sur 39 Sur 0 899.6 -0.3 81
2019-04-24 16:00:00 9.2 15 Sur 36 Sudoeste 0 899.9 0.1 86
2019-04-24 15:00:00 8.5 15 Sur 30 Sudoeste 0 900.1 0.4 86
2019-04-24 14:00:00 8 18 Sur 36 Sudoeste 0 899.9 0.3 86
2019-04-24 13:00:00 7.4 17 Sur 32 Sur 0 899.8 0.4 81
2019-04-24 12:00:00 5.9 12 Sur 29 Sur 0.2 899.7 0.6 86
2019-04-24 11:00:00 5.3 14 Sur 25 Sudoeste 0 899.6 1.3 85
2019-04-24 10:00:00 4.2 11 Sudoeste 18 Sur 0.2 899.4 1.6 89
2019-04-24 09:00:00 3.7 6 Sudoeste 22 Sudoeste 0 899.1 1.8 90
2019-04-24 08:00:00 3.4 9 Sudoeste 20 Oeste 0 898.3 1.2 92
2019-04-24 07:00:00 3.4 8 Sudoeste 20 Sudoeste 0 897.8 1.1 91
2019-04-24 06:00:00 3.3 8 Sudoeste 20 Sudoeste 0.2 897.3 0.7 94
2019-04-24 05:00:00 3.7 9 Sudoeste 20 Sudoeste 0.4 897.1 0.6 92
2019-04-24 04:00:00 3.9 9 Oeste 23 Oeste 0 896.7 0.3 92
2019-04-24 03:00:00 4.1 9 Sudoeste 23 Sudoeste 0 896.6 0.9 90
2019-04-24 02:00:00 4.1 7 Sudoeste 22 Oeste 0.2 896.5 1.3 91
2019-04-24 01:00:00 4.4 8 Sudoeste 30 Sudoeste 0.2 896.4 1.5 87
2019-04-24 00:00:00 5.2 7 Sudoeste 19 Oeste 0.2 895.7 2 86
2019-04-23 23:00:00 5.5 10 Oeste 23 Oeste 0 895.2 2.4 80
2019-04-23 22:00:00 5.5 7 Sudoeste 23 Oeste 0 894.9 2.2 79
2019-04-23 21:00:00 6.6 12 Oeste 23 Oeste 0 893.7 2 77
2019-04-23 20:00:00 7.5 9 Sudoeste 31 Sudoeste 0 892.8 1 69
2019-04-23 19:00:00 7.2 7 Oeste 51 Oeste 0.6 892.7 0.8 75
2019-04-23 18:00:00 10.7 17 Sudoeste 34 Sudoeste 0 891.7 -0.1 53
2019-04-23 17:00:00 9.4 19 Sudoeste 34 Sudoeste 0 891.8 -0.1 66
2019-04-23 16:00:00 9.3 15 Sudoeste 32 Sudoeste 0 891.9 -0.6 76
2019-04-23 15:00:00 10 11 Sudoeste 24 Sudoeste 0 891.8 -0.2 79
2019-04-23 14:00:00 10 10 Sur 19 Sur 0.4 891.9 0.3 78
2019-04-23 13:00:00 8.7 10 Sudoeste 22 Sudoeste 1 892.5 1 92
2019-04-23 12:00:00 8.8 10 Sur 19 Sur 1.6 892 0.7 92
2019-04-23 11:00:00 9.4 11 Sudoeste 27 Sudoeste 0 891.6 0.3 83
2019-04-23 10:00:00 9.1 12 Sudoeste 30 Sudoeste 0 891.5 0.4 83
2019-04-23 09:00:00 8.6 8 Sudoeste 18 Sudoeste 0 891.3 -0.1 90
2019-04-23 08:00:00 8.5 9 Sudoeste 20 Sur 0 891.3 -0.3 92
2019-04-23 07:00:00 8.6 7 Sur 17 Sur 0 891.1 -0.6 91
2019-04-23 06:00:00 8.5 3 Sudeste 10 Sudeste 0 891.4 -0.8 91
2019-04-23 05:00:00 8.5 5 Sudeste 11 Sudeste 0 891.6 -1.2 89
2019-04-23 04:00:00 9 4 Sudeste 9 Este 0 891.7 -1.4 86
2019-04-23 03:00:00 9.7 6 Sudeste 12 Sudeste 0.2 892.2 -1 85
2019-04-23 02:00:00 10.1 5 Sudeste 15 Sudeste 0 892.8 -0.9 81
2019-04-23 01:00:00 10.1 6 Sudeste 14 Sudeste 0 893.1 -0.2 79
2019-04-23 00:00:00 10.4 2 Sur 13 Este 0 893.2 0.1 79
2019-04-22 23:00:00 10 4 Sudeste 10 Este 0 893.7 0.4 82
2019-04-22 22:00:00 11.3 3 Sur 8 Sudoeste 0 893.3 0.2 75
2019-04-22 21:00:00 12.1 3 Oeste 14 Oeste 0 893.1 0 69
2019-04-22 20:00:00 12.4 5 Oeste 15 Oeste 0 893.3 0 70
2019-04-22 19:00:00 13 4 Noroeste 18 Noroeste 0 893.1 -0.6 68
2019-04-22 18:00:00 13.7 9 Oeste 19 Norte 0 893.1 -1 64
2019-04-22 17:00:00 14.4 7 Noroeste 21 Oeste 0 893.3 -1.1 62
2019-04-22 16:00:00 15 6 Noroeste 20 Noroeste 0 893.7 -1.3 53
2019-04-22 15:00:00 15 10 Noroeste 24 Noroeste 0 894.1 -1.2 56
2019-04-22 14:00:00 14.5 9 Oeste 19 Oeste 0 894.4 -1.1 58
2019-04-22 13:00:00 12.1 8 Noroeste 18 Noroeste 0 895 -0.7 71
2019-04-22 12:00:00 11.5 4 Noroeste 12 Noroeste 0 895.3 -0.4 76
2019-04-22 11:00:00 9.2 4 Noroeste 11 Noroeste 0 895.5 -0.1 86
2019-04-22 10:00:00 7.7 6 Noroeste 12 Oeste 0 895.7 0 94
2019-04-22 09:00:00 7.1 4 Noroeste 12 Oeste 0 895.7 -0.3 96
2019-04-22 08:00:00 6.9 3 Noroeste 12 Norte 0 895.6 -1.2 95
2019-04-22 07:00:00 6.9 4 Norte 14 Norte 0 895.7 -1.7 94
2019-04-22 06:00:00 6.9 4 Norte 14 Norte 0 896 -2.2 95
2019-04-22 05:00:00 7 3 Noroeste 9 Noroeste 0 896.8 -2.4 95
2019-04-22 04:00:00 7.1 3 Norte 11 Norte 0 897.4 -2.2 95
2019-04-22 03:00:00 7.2 3 Noroeste 9 Noroeste 1 898.2 -1.7 95
2019-04-22 02:00:00 7.4 2 Noroeste 7 Noroeste 1.4 899.2 -1 95
2019-04-22 01:00:00 7.6 0 Calma 6 Noroeste 0.6 899.6 -0.6 92
2019-04-22 00:00:00 7.9 0 Calma 5 Norte 0.4 899.9 -0.2 89
2019-04-21 23:00:00 8.3 3 Norte 5 Norte 0 900.2 0.3 85
2019-04-21 22:00:00 8.5 2 Oeste 8 Nordeste 0.2 900.2 0.1 81
2019-04-21 21:00:00 9.1 4 Nordeste 9 Nordeste 0 900.1 -0.4 77
2019-04-21 20:00:00 9.4 2 Norte 16 Nordeste 0 899.9 -0.8 75
2019-04-21 19:00:00 9.7 7 Norte 18 Noroeste 0.2 900.1 -0.9 76
2019-04-21 18:00:00 10.1 6 Nordeste 18 Nordeste 0.2 900.5 -1 72
2019-04-21 17:00:00 10.3 7 Nordeste 15 Norte 0 900.7 -1.3 67
2019-04-21 16:00:00 10.6 5 Nordeste 13 Norte 0 901 -1.6 66
2019-04-21 15:00:00 9.5 6 Norte 15 Nordeste 0 901.5 -1.5 68
2019-04-21 14:00:00 9.3 5 Nordeste 14 Nordeste 0 902 -1 69
2019-04-21 13:00:00 9.1 3 Nordeste 12 Norte 0 902.6 -0.2 68
2019-04-21 12:00:00 8.6 3 Norte 15 Este 0 903 0.1 73
2019-04-21 11:00:00 8.3 4 Nordeste 22 Nordeste 0 903 -0.4 71
2019-04-21 10:00:00 7.8 6 Norte 25 Nordeste 0 902.8 -0.6 74
2019-04-21 09:00:00 7.2 8 Norte 22 Norte 0 902.9 -0.9 75
2019-04-21 08:00:00 6.8 3 Norte 24 Norte 0 903.4 -1 78
2019-04-21 07:00:00 6.6 5 Norte 17 Norte 0 903.4 -1.7 78
2019-04-21 06:00:00 6.1 5 Norte 13 Norte 0 903.8 -2.5 82
2019-04-21 05:00:00 5.9 3 Norte 14 Noroeste 0 904.4 -2.9 82
2019-04-21 04:00:00 6.2 4 Norte 14 Norte 0 905.1 -3 83
2019-04-21 03:00:00 6.3 4 Norte 15 Nordeste 0 906.3 -2 85
2019-04-21 02:00:00 6.5 3 Norte 14 Noroeste 0 907.3 -1.4 85
2019-04-21 01:00:00 6.5 4 Noroeste 10 Noroeste 0 908.1 -0.6 86
2019-04-21 00:00:00 6.5 2 Norte 20 Nordeste 0 908.3 0 86
2019-04-20 23:00:00 6.7 9 Nordeste 16 Nordeste 0.8 908.7 0.5 86
2019-04-20 22:00:00 7.3 3 Norte 10 Nordeste 1.2 908.7 0.7 89
2019-04-20 21:00:00 7.7 2 Nordeste 21 Nordeste 1.2 908.3 0.8 83
2019-04-20 20:00:00 8.6 9 Este 21 Este 1 908.2 0.9 78
2019-04-20 19:00:00 10.2 6 Este 22 Este 0.2 908 0.9 73
2019-04-20 18:00:00 11.3 4 Sudeste 23 Este 0.4 907.5 0.6 67
2019-04-20 17:00:00 12.9 5 Este 22 Sudeste 0 907.3 0.5 52
2019-04-20 16:00:00 13.6 9 Este 36 Sudeste 0 907.1 0 45
2019-04-20 15:00:00 14.3 9 Este 24 Este 0 906.9 -0.2 43
2019-04-20 14:00:00 13.6 10 Nordeste 36 Este 0 906.8 -0.5 48
2019-04-20 13:00:00 13.2 12 Nordeste 35 Nordeste 0 907.1 0.5 53
2019-04-20 12:00:00 13.2 10 Este 29 Este 0 907.1 0.8 54
2019-04-20 11:00:00 13.1 10 Este 24 Este 0 907.3 0.9 53
2019-04-20 10:00:00 11.7 7 Nordeste 18 Nordeste 0 906.6 0 58
2019-04-20 09:00:00 10.3 5 Norte 15 Norte 0 906.3 -0.7 67
2019-04-20 08:00:00 10.6 6 Norte 36 Nordeste 0 906.4 -0.2 63
2019-04-20 07:00:00 10.8 17 Nordeste 32 Este 0 906.6 -0.6 62
2019-04-20 06:00:00 10.8 9 Nordeste 32 Nordeste 0 907 -0.8 58
2019-04-20 05:00:00 10.2 9 Nordeste 28 Nordeste 0 906.6 -2.8 62
2019-04-20 04:00:00 10.2 4 Norte 28 Nordeste 0 907.2 -2 67
2019-04-20 03:00:00 10.2 5 Nordeste 22 Norte 0 907.8 -1.5 67
2019-04-20 02:00:00 10.4 4 Norte 37 Este 0 909.4 0.1 67
2019-04-20 01:00:00 10.2 11 Este 27 Nordeste 0 909.2 -0.2 73
2019-04-20 00:00:00 9.1 3 Sur 10 Sur 0 909.3 0.8 86
2019-04-19 23:00:00 8.3 3 Norte 14 Noroeste 0.4 909.3 1.5 96
2019-04-19 22:00:00 7.5 4 Norte 13 Noroeste 0.2 909.4 2.1 98
2019-04-19 21:00:00 7.5 3 Noroeste 10 Noroeste 0.4 908.5 1.1 98
2019-04-19 20:00:00 7.5 4 Oeste 9 Oeste 0.6 907.8 0.7 96
2019-04-19 19:00:00 7.6 4 Norte 10 Oeste 2.6 907.3 0.3 96
2019-04-19 18:00:00 7.7 5 Noroeste 17 Noroeste 1.8 907.4 -0.3 96
2019-04-19 17:00:00 8.1 5 Noroeste 17 Noroeste 1.8 907.1 -0.6 95
2019-04-19 16:00:00 8.2 4 Noroeste 15 Noroeste 2.4 907 -1.3 97
2019-04-19 15:00:00 7.7 7 Noroeste 13 Noroeste 2 907.7 -0.2 95
2019-04-19 14:00:00 7.9 4 Oeste 8 Oeste 2.4 907.7 0.5 94
2019-04-19 13:00:00 7.9 2 Nordeste 10 Sudeste 5 908.3 1.2 90
2019-04-19 12:00:00 8.5 3 Sudeste 8 Este 3.6 907.9 1.1 93
2019-04-19 11:00:00 8.9 3 Nordeste 9 Sur 0.6 907.2 0.9 92
2019-04-19 10:00:00 8.5 2 Norte 7 Este 0.4 907.1 1.3 94
2019-04-19 09:00:00 8 4 Oeste 8 Sur 0.4 906.8 1.2 94
2019-04-19 08:00:00 7.8 3 Sudeste 9 Sudeste 0 906.3 0.9 91
2019-04-19 07:00:00 7.8 4 Este 14 Este 0 905.8 0.7 89
2019-04-19 06:00:00 7.5 4 Sudeste 14 Sudeste 0 905.6 0.4 91
2019-04-19 05:00:00 7.4 5 Sudeste 12 Este 0 905.4 -0.1 93
2019-04-19 04:00:00 7.2 5 Sudeste 11 Sudeste 0 905.1 0 95
2019-04-19 03:00:00 7.2 3 Nordeste 13 Sudeste 0 905.2 0.3 93
2019-04-19 02:00:00 7.2 5 Sur 9 Sur 0 905.5 1 93
2019-04-19 01:00:00 7.6 2 Oeste 9 Oeste 0 905.1 0.6 93
2019-04-19 00:00:00 7.4 3 Este 7 Oeste 0 904.9 1.2 93
2019-04-18 23:00:00 7.4 2 Este 8 Nordeste 0.2 904.5 0.7 92
2019-04-18 22:00:00 7.6 3 Oeste 9 Nordeste 0 904.5 0.9 90
2019-04-18 21:00:00 7.7 2 Este 10 Oeste 0 903.7 0.3 86
2019-04-18 20:00:00 7.8 4 Sudeste 28 Nordeste 1.2 903.8 -0.2 83
2019-04-18 19:00:00 8.1 8 Este 19 Nordeste 3.4 903.6 -0.5 87
2019-04-18 18:00:00 8.9 3 Este 10 Este 2 903.4 -1.1 89
2019-04-18 17:00:00 8.7 4 Sudeste 10 Noroeste 3 904 -0.7 91
2019-04-18 16:00:00 8.9 4 Noroeste 12 Norte 3.4 904.1 -0.7 95
2019-04-18 15:00:00 9.1 3 Oeste 9 Sur 3.2 904.5 -0.7 93
2019-04-18 14:00:00 9.7 3 Sur 8 Sur 1 904.7 -0.5 90
2019-04-18 13:00:00 9.5 4 Sudoeste 20 Sudoeste 1.6 904.8 0 92
2019-04-18 12:00:00 10.5 5 Sudoeste 10 Oeste 0 905.2 1 89
2019-04-18 11:00:00 10.8 3 Sur 10 Norte 0 905.2 -0.5 83
2019-04-18 10:00:00 10 2 Norte 21 Nordeste 0 904.8 -1.4 92
2019-04-18 09:00:00 8.6 8 Norte 20 Nordeste 1.2 904.2 -1.6 89
2019-04-18 08:00:00 8.5 5 Sur 13 Sudeste 4.8 905.7 -0.1 90
2019-04-18 07:00:00 8.9 5 Noroeste 13 Noroeste 0.6 906.2 0 86
2019-04-18 06:00:00 9.9 4 Sudoeste 9 Noroeste 0 905.8 -0.9 74
2019-04-18 05:00:00 9.9 4 Oeste 8 Sudoeste 0 905.8 -1.7 71
2019-04-18 04:00:00 9.7 6 Sur 12 Sur 0 906.2 -0.9 73
2019-04-18 03:00:00 10.2 6 Sudeste 15 Sur 0 906.7 -0.4 72
2019-04-18 02:00:00 10.6 8 Sudeste 21 Sur 0 907.5 1.2 72
2019-04-18 01:00:00 11.9 9 Sur 25 Sur 0 907.1 1 65
2019-04-18 00:00:00 12.3 11 Sur 19 Sudeste 0 907.1 2.6 64
2019-04-17 23:00:00 13.7 11 Sur 25 Sudeste 0 906.3 2.7 57
2019-04-17 22:00:00 14.4 9 Sur 31 Sur 0 906.1 2.5 59
2019-04-17 21:00:00 15.9 16 Sudeste 39 Sudeste 0 904.5 1 51
2019-04-17 20:00:00 16.8 21 Sur 37 Sudeste 0 903.6 -0.4 48
2019-04-17 19:00:00 18.3 20 Sudeste 43 Sudeste 0 903.6 -1.4 44
2019-04-17 18:00:00 19.2 18 Sudeste 40 Sur 0 903.5 -2.4 40
2019-04-17 17:00:00 19.1 17 Sudeste 43 Sur 0 904 -2.2 42
2019-04-17 16:00:00 19.8 22 Sudeste 39 Sur 0 905 -1.4 40
2019-04-17 15:00:00 19.1 19 Sudeste 34 Sur 0 905.9 -0.9 41
2019-04-17 14:00:00 18.3 21 Sur 36 Sudeste 0 906.2 -0.9 42
2019-04-17 13:00:00 17.1 18 Sudeste 33 Sur 0 906.4 -0.9 44
2019-04-17 12:00:00 15.5 19 Sur 36 Sur 0 906.8 -0.8 47
2019-04-17 11:00:00 12.5 21 Sudeste 36 Sudeste 0 907.1 -0.4 61
2019-04-17 10:00:00 10.7 19 Sudeste 33 Sur 0 907.3 -0.2 68
2019-04-17 09:00:00 7.8 11 Sur 28 Sudeste 0 907.6 -0.1 84
2019-04-17 08:00:00 6.8 10 Sudeste 19 Sur 0 907.5 -0.3 88
2019-04-17 07:00:00 7.2 5 Sudeste 10 Sur 0 907.5 -0.8 85
2019-04-17 06:00:00 8.1 6 Sur 24 Sudeste 0 907.7 -1.2 82
2019-04-17 05:00:00 8.8 9 Sur 32 Sudeste 0 907.8 -1.6 78
2019-04-17 04:00:00 9.6 15 Sur 34 Sudeste 0 908.3 -0.7 75
2019-04-17 03:00:00 9.3 11 Sur 26 Sudeste 0 908.9 -0.3 77
2019-04-17 02:00:00 10 18 Sur 39 Sur 0 909.4 0.5 73
2019-04-17 01:00:00 10.4 18 Sur 37 Sur 0 909 0.5 72
2019-04-17 00:00:00 10.7 15 Sur 31 Sur 0 909.2 1.2 75
2019-04-16 23:00:00 12.3 15 Sur 32 Sudeste 0 908.9 1.3 70
2019-04-16 22:00:00 14 14 Sudeste 28 Sur 0 908.5 0.8 64
2019-04-16 21:00:00 16.5 10 Sudeste 22 Sudeste 0 908 0.1 46
2019-04-16 20:00:00 19.2 11 Sur 23 Sur 0 907.6 -0.7 24
2019-04-16 19:00:00 20.7 13 Sur 28 Sudoeste 0 907.7 -1.1 22
2019-04-16 18:00:00 21.6 10 Sur 23 Sudoeste 0 907.9 -1.2 28
2019-04-16 17:00:00 21.5 7 Sur 21 Sur 0 908.3 -1.4 26
2019-04-16 16:00:00 20.7 7 Sudeste 17 Sudeste 0 908.8 -1.3 25
2019-04-16 15:00:00 19.2 5 Sudoeste 16 Sudoeste 0 909.1 -1.4 35
2019-04-16 14:00:00 18 6 Sur 16 Sudoeste 0 909.7 -0.6 38
2019-04-16 13:00:00 16.5 6 Oeste 18 Sur 0 910.1 -0.2 38
2019-04-16 12:00:00 15.4 5 Noroeste 13 Oeste 0 910.5 0.4 42
2019-04-16 11:00:00 13.1 4 Sudoeste 12 Norte 0 910.3 0.7 63
2019-04-16 10:00:00 10.1 5 Norte 12 Norte 0 910.3 1.3 73
2019-04-16 09:00:00 6.7 0 Calma 9 Nordeste 0 910.1 1.1 84
2019-04-16 08:00:00 5.9 4 Noroeste 11 Norte 0 909.6 0.6 87
2019-04-16 07:00:00 6.5 3 Noroeste 10 Norte 0 909 0.8 86
2019-04-16 06:00:00 7.5 2 Norte 8 Noroeste 0 909 0.7 86
2019-04-16 05:00:00 8.3 3 Oeste 8 Noroeste 0 909 0.4 82
2019-04-16 04:00:00 9.5 3 Noroeste 11 Norte 0 908.2 -0.1 77
2019-04-16 03:00:00 10.5 4 Noroeste 12 Noroeste 0 908.3 0.2 78
2019-04-16 02:00:00 11.7 6 Oeste 11 Noroeste 0 908.6 1.2 76
2019-04-16 01:00:00 12.4 6 Noroeste 20 Noroeste 0 908.3 2.2 72
2019-04-16 00:00:00 13.2 8 Noroeste 19 Noroeste 0.2 908.1 2.7 70
2019-04-15 23:00:00 13.3 2 Noroeste 10 Norte 0 907.4 3.5 74
2019-04-15 22:00:00 14.1 4 Este 56 Noroeste 1.6 906.1 2.2 61
2019-04-15 21:00:00 19.1 9 Oeste 26 Oeste 0 905.4 1.4 36
2019-04-15 20:00:00 20.8 12 Sudoeste 35 Oeste 0 903.9 -0.7 28
2019-04-15 19:00:00 22.6 15 Sudoeste 34 Sudoeste 0 903.9 -1.3 27
2019-04-15 18:00:00 22.6 14 Sudoeste 37 Sudoeste 0 904 -1.6 31
2019-04-15 17:00:00 21.2 14 Sur 30 Sudeste 0 904.6 -1.5 43
2019-04-15 16:00:00 21.6 15 Sudoeste 32 Sudoeste 0 905.2 -1.1 40
2019-04-15 15:00:00 19.4 13 Sur 30 Sur 0 905.6 -0.9 45
2019-04-15 14:00:00 20.5 17 Sur 32 Sudeste 0 906.1 -0.5 44
2019-04-15 13:00:00 20.3 15 Sur 28 Sur 0 906.3 -0.6 45
2019-04-15 12:00:00 19.3 11 Sur 24 Sudeste 0 906.5 -0.5 52
2019-04-15 11:00:00 17 12 Sudeste 21 Sur 0 906.6 -0.4 59
2019-04-15 10:00:00 13.9 5 Sur 12 Sudeste 0 906.9 0.2 70
2019-04-15 09:00:00 10.4 2 Noroeste 4 Oeste 0 907 -0.1 79
2019-04-15 08:00:00 10 0 Calma 4 Oeste 0 907 -0.6 80
2019-04-15 07:00:00 10 0 Calma 7 Sudoeste 0 906.7 -1.3 79
2019-04-15 06:00:00 10.3 3 Oeste 8 Oeste 0 907.1 -1 79
2019-04-15 05:00:00 10.4 0 Calma 5 Oeste 0 907.6 -1 76
2019-04-15 04:00:00 10.7 0 Calma 5 Oeste 0 908 -1 75
2019-04-15 03:00:00 10.9 0 Calma 7 Norte 0 908.1 -0.9 72
2019-04-15 02:00:00 11.5 0 Calma 5 Norte 0 908.6 -0.2 69
2019-04-15 01:00:00 12.3 2 Sudoeste 7 Nordeste 0 909 0.2 64
2019-04-15 00:00:00 13.2 5 Este 13 Nordeste 0 909 0.9 61
2019-04-14 23:00:00 14.9 4 Norte 8 Norte 0 908.8 1.1 56
2019-04-14 22:00:00 16.7 5 Norte 8 Nordeste 0 908.8 1.4 49
2019-04-14 21:00:00 18.9 3 Norte 14 Norte 0 908.1 0.7 42
2019-04-14 20:00:00 20.7 5 Noroeste 17 Noroeste 0 907.7 0 39
2019-04-14 19:00:00 22.8 6 Noroeste 21 Noroeste 0 907.4 -0.8 33
2019-04-14 18:00:00 23 7 Noroeste 27 Noroeste 0 907.4 -1.2 32
2019-04-14 17:00:00 23 7 Noroeste 24 Noroeste 0 907.7 -1.3 32
2019-04-14 16:00:00 22.4 7 Noroeste 24 Noroeste 0 908.2 -1.2 32
2019-04-14 15:00:00 21.8 8 Norte 21 Oeste 0 908.6 -1 32
2019-04-14 14:00:00 20.2 5 Sudoeste 17 Oeste 0 909 -0.8 34
2019-04-14 13:00:00 18.3 4 Norte 17 Noroeste 0 909.4 -0.3 36
2019-04-14 12:00:00 15.7 5 Oeste 11 Oeste 0 909.6 0.1 36
2019-04-14 11:00:00 12.6 4 Oeste 7 Oeste 0 909.8 0.4 39
2019-04-14 10:00:00 9.2 2 Sudoeste 6 Norte 0 909.7 0.4 46
2019-04-14 09:00:00 4.3 2 Sur 4 Sur 0 909.5 0.3 58
2019-04-14 08:00:00 3.6 0 Calma 5 Nordeste 0 909.4 -0.2 60
2019-04-14 07:00:00 3.8 0 Calma 7 Nordeste 0 909.3 -0.3 58
2019-04-14 06:00:00 4.1 0 Calma 6 Oeste 0 909.2 -0.5 57
2019-04-14 05:00:00 4.6 0 Calma 5 Norte 0 909.6 -0.6 54
2019-04-14 04:00:00 5.2 0 Calma 8 Norte 0 909.6 -0.8 52
2019-04-14 03:00:00 5.6 0 Calma 3 Sudoeste 0 909.7 -0.7 51
2019-04-14 02:00:00 6.8 0 Calma 5 Nordeste 0 910.2 -0.1 48
2019-04-14 01:00:00 8.1 0 Calma 5 Nordeste 0 910.4 0.3 45
2019-04-14 00:00:00 9.6 0 Calma 4 Oeste 0 910.4 1 37
2019-04-13 23:00:00 11.9 2 Nordeste 7 Norte 0 910.3 1.4 30
2019-04-13 22:00:00 13.9 3 Norte 9 Noroeste 0 910.1 1.5 25
2019-04-13 21:00:00 15.9 3 Noroeste 18 Noroeste 0 909.4 1 20
2019-04-13 20:00:00 18.2 8 Noroeste 23 Noroeste 0 908.9 0.3 14
2019-04-13 19:00:00 19.7 8 Noroeste 26 Noroeste 0 908.6 -0.1 15
2019-04-13 18:00:00 20.3 9 Noroeste 25 Noroeste 0 908.4 -0.8 14
2019-04-13 17:00:00 20.3 10 Noroeste 27 Sudoeste 0 908.6 -0.8 14
2019-04-13 16:00:00 19.4 11 Oeste 31 Noroeste 0 908.7 -1 14
2019-04-13 15:00:00 18.4 8 Noroeste 30 Noroeste 0 909.2 -1.2 16
2019-04-13 14:00:00 17.5 11 Noroeste 26 Noroeste 0 909.4 -1 14
2019-04-13 13:00:00 16.3 10 Oeste 22 Noroeste 0 909.7 -0.4 19
2019-04-13 12:00:00 14.4 6 Noroeste 15 Noroeste 0 910.4 0.4 27
2019-04-13 11:00:00 10.8 4 Norte 11 Norte 0 910.4 0.8 30
2019-04-13 10:00:00 7.1 3 Norte 10 Nordeste 0 910.1 1 53
2019-04-13 09:00:00 1.5 7 Norte 17 Este 0 910 1.3 69
2019-04-13 08:00:00 0.4 9 Norte 19 Norte 0 909.6 0.8 78
2019-04-13 07:00:00 1.1 2 Nordeste 5 Noroeste 0 909.1 0.1 78
2019-04-13 06:00:00 1.7 4 Nordeste 22 Nordeste 0 908.7 -0.7 74
2019-04-13 05:00:00 2.4 9 Norte 20 Norte 0 908.8 -0.8 72
2019-04-13 04:00:00 3.3 0 Calma 5 Norte 0 909 -0.6 71
2019-04-13 03:00:00 4.2 0 Calma 5 Sudoeste 0 909.4 0.3 68
2019-04-13 02:00:00 4.9 4 Nordeste 10 Norte 0 909.6 0.9 64
2019-04-13 01:00:00 6.1 4 Norte 9 Norte 0 909.6 1.3 60
2019-04-13 00:00:00 7 5 Nordeste 14 Norte 0 909.1 1.3 57
2019-04-12 23:00:00 9 2 Norte 9 Noroeste 0 908.7 1.2 50
2019-04-12 22:00:00 11.2 4 Noroeste 11 Noroeste 0 908.3 1 40
2019-04-12 21:00:00 13.4 3 Noroeste 16 Noroeste 0 907.8 0.5 33
2019-04-12 20:00:00 15.2 6 Noroeste 19 Norte 0 907.5 0.1 30
2019-04-12 19:00:00 16.6 8 Norte 22 Norte 0 907.3 -0.5 29
2019-04-12 18:00:00 16.9 7 Noroeste 22 Norte 0 907.3 -0.8 29
2019-04-12 17:00:00 16.4 8 Norte 32 Noroeste 0 907.4 -0.9 35
2019-04-12 16:00:00 15.6 12 Noroeste 32 Noroeste 0 907.8 -0.5 36
2019-04-12 15:00:00 14.8 6 Norte 26 Nordeste 0 908.1 -0.4 35
2019-04-12 14:00:00 13.5 7 Norte 30 Norte 0 908.3 -0.2 38
2019-04-12 13:00:00 13.4 8 Norte 29 Oeste 0 908.3 -0.4 40
2019-04-12 12:00:00 11.7 8 Norte 24 Norte 0 908.5 -0.1 47
2019-04-12 11:00:00 9.1 6 Norte 19 Nordeste 0 908.5 0.1 59
2019-04-12 10:00:00 5.8 4 Noroeste 12 Oeste 0 908.7 0.4 71
2019-04-12 09:00:00 2.4 5 Oeste 10 Oeste 0 908.6 0.3 84
2019-04-12 08:00:00 1.5 3 Noroeste 9 Norte 0 908.4 0 85
2019-04-12 07:00:00 1.4 3 Norte 9 Nordeste 0 908.3 -0.1 83
2019-04-12 06:00:00 1.9 3 Norte 9 Norte 0 908.3 -0.5 81
2019-04-12 05:00:00 2.8 3 Noroeste 8 Norte 0 908.4 -0.8 78
2019-04-12 04:00:00 3.7 5 Norte 15 Nordeste 0 908.4 -0.9 76
2019-04-12 03:00:00 4.5 4 Norte 13 Norte 0 908.8 -0.4 74
2019-04-12 02:00:00 5.2 4 Oeste 10 Noroeste 0 909.2 0.1 73
2019-04-12 01:00:00 5.9 4 Oeste 8 Norte 0 909.3 0.7 71
2019-04-12 00:00:00 7 3 Norte 10 Norte 0 909.2 1.3 66
2019-04-11 23:00:00 8.2 3 Norte 10 Norte 0 909.1 1.6 61
2019-04-11 22:00:00 9.4 4 Norte 22 Noroeste 0 908.6 1.4 56
2019-04-11 21:00:00 10.7 5 Noroeste 23 Norte 0 907.9 0.8 49
2019-04-11 20:00:00 12.7 8 Norte 24 Norte 0 907.5 0.6 39
2019-04-11 19:00:00 14 8 Norte 30 Noroeste 0 907.2 0 34
2019-04-11 18:00:00 15 9 Noroeste 28 Norte 0 907.1 -0.4 32
2019-04-11 17:00:00 14.4 8 Norte 28 Noroeste 0 906.9 -0.8 36
2019-04-11 16:00:00 14.6 9 Norte 28 Noroeste 0 907.2 -0.8 34
2019-04-11 15:00:00 14.3 8 Norte 31 Norte 0 907.5 -0.7 35
2019-04-11 14:00:00 13.1 9 Noroeste 31 Norte 0 907.7 -0.3 41
2019-04-11 13:00:00 11.9 9 Noroeste 27 Norte 0 908 0 50
2019-04-11 12:00:00 10.4 10 Norte 27 Nordeste 0 908.2 0.5 52
2019-04-11 11:00:00 8.9 8 Norte 22 Nordeste 0 908 0.5 60
2019-04-11 10:00:00 6.4 8 Norte 24 Norte 0 908 1 72
2019-04-11 09:00:00 2.9 5 Noroeste 15 Norte 0 907.7 0.7 88
2019-04-11 08:00:00 1.7 4 Noroeste 14 Noroeste 0 907.5 0.6 90
2019-04-11 07:00:00 1.9 4 Noroeste 13 Noroeste 0 907 0.2 90
2019-04-11 06:00:00 2.3 3 Noroeste 12 Norte 0 907 -0.1 88
2019-04-11 05:00:00 2.6 4 Norte 10 Norte 0 906.9 -0.2 89
2019-04-11 04:00:00 2.8 4 Noroeste 10 Norte 0 906.8 -0.4 89
2019-04-11 03:00:00 3.2 3 Norte 13 Noroeste 0 907.1 0.3 89
2019-04-11 02:00:00 3.9 5 Noroeste 12 Noroeste 0 907.1 0.4 89
2019-04-11 01:00:00 4.2 3 Noroeste 11 Norte 0 907.2 1.1 88
2019-04-11 00:00:00 4.6 4 Norte 15 Norte 0 906.8 1.4 89
2019-04-10 23:00:00 5.5 7 Norte 14 Norte 0 906.7 1.6 84
2019-04-10 22:00:00 6 6 Norte 18 Norte 0 906.1 1.5 82
2019-04-10 21:00:00 6.5 4 Norte 13 Nordeste 0 905.4 1.2 76
2019-04-10 20:00:00 7.4 5 Noroeste 23 Nordeste 0 905.1 0.9 73
2019-04-10 19:00:00 8.7 11 Norte 39 Norte 0 904.6 -0.3 67
2019-04-10 18:00:00 10.4 4 Noroeste 21 Noroeste 0 904.2 -0.5 61
2019-04-10 17:00:00 8.4 9 Noroeste 29 Oeste 0 904.2 0.1 69
2019-04-10 16:00:00 5.3 11 Norte 31 Norte 1.6 904.9 0.7 87
2019-04-10 15:00:00 9.2 13 Noroeste 35 Norte 0.2 904.7 0 64
2019-04-10 14:00:00 9.6 10 Norte 31 Oeste 0 904.1 -0.5 55
2019-04-10 13:00:00 10.1 8 Noroeste 24 Noroeste 0 904.2 -0.4 59
2019-04-10 12:00:00 8.3 10 Noroeste 26 Noroeste 0 904.7 0.3 65
2019-04-10 11:00:00 7.3 6 Noroeste 26 Noroeste 0 904.6 0.5 73
2019-04-10 10:00:00 5.7 6 Noroeste 19 Noroeste 0 904.6 0.9 82
2019-04-10 09:00:00 5 4 Noroeste 17 Noroeste 0 904.4 0.6 86
2019-04-10 08:00:00 4.3 5 Noroeste 12 Norte 0 904.1 0.2 89
2019-04-10 07:00:00 4.6 4 Norte 10 Noroeste 0 903.7 -0.3 90
2019-04-10 06:00:00 4.5 4 Noroeste 13 Norte 0 903.8 -0.4 87
2019-04-10 05:00:00 4 3 Noroeste 11 Noroeste 0 903.9 -0.4 87
2019-04-10 04:00:00 4.3 3 Noroeste 9 Noroeste 0 904 -0.5 85
2019-04-10 03:00:00 4.7 4 Noroeste 16 Noroeste 0 904.2 -0.3 82
2019-04-10 02:00:00 4.9 3 Norte 9 Norte 0 904.3 -0.1 83
2019-04-10 01:00:00 4.8 4 Norte 17 Norte 0 904.5 0.3 85
2019-04-10 00:00:00 5.3 7 Norte 15 Norte 0 904.5 0.6 81
2019-04-09 23:00:00 5.6 3 Oeste 10 Oeste 0 904.4 1.1 79
2019-04-09 22:00:00 5.8 4 Oeste 13 Noroeste 0 904.2 1.1 76
2019-04-09 21:00:00 6.9 4 Oeste 21 Noroeste 0 903.9 0.9 69
2019-04-09 20:00:00 8.6 9 Noroeste 24 Noroeste 0 903.3 0.4 61
2019-04-09 19:00:00 7.9 13 Oeste 28 Noroeste 0 903.1 -0.1 60
2019-04-09 18:00:00 8.3 14 Noroeste 39 Noroeste 0.8 903 -0.1 73
2019-04-09 17:00:00 7.3 12 Oeste 24 Oeste 1.2 902.9 -0.9 86
2019-04-09 16:00:00 9.1 14 Oeste 40 Oeste 0.4 903.2 -1.3 74
2019-04-09 15:00:00 11.1 10 Oeste 32 Oeste 0 903.1 -1.8 53
2019-04-09 14:00:00 9.3 10 Oeste 29 Oeste 0.2 903.8 -1.2 72
2019-04-09 13:00:00 8.4 10 Oeste 32 Oeste 0 904.5 -0.5 67
2019-04-09 12:00:00 7.4 14 Noroeste 32 Noroeste 0 904.9 -0.3 67
2019-04-09 11:00:00 6.8 12 Noroeste 32 Noroeste 0 905 -0.1 73
2019-04-09 10:00:00 5.9 6 Noroeste 26 Noroeste 0 905 0.4 79
2019-04-09 09:00:00 5.6 6 Noroeste 23 Noroeste 0 905.2 0.6 82
2019-04-09 08:00:00 5.4 12 Noroeste 26 Oeste 0 905.1 0.6 83
2019-04-09 07:00:00 5.6 9 Noroeste 19 Oeste 0 904.6 0.1 85
2019-04-09 06:00:00 5.5 4 Noroeste 14 Oeste 0 904.6 0 85
2019-04-09 05:00:00 5.3 3 Norte 11 Noroeste 0 904.5 -0.2 87
2019-04-09 04:00:00 5.5 3 Noroeste 10 Noroeste 0 904.5 0.4 84
2019-04-09 03:00:00 6.3 4 Noroeste 21 Norte 0 904.6 0.5 80
2019-04-09 02:00:00 7.3 5 Noroeste 26 Noroeste 0 904.7 0.4 73
2019-04-09 01:00:00 8.1 6 Noroeste 13 Oeste 0 904.1 0.2 66
2019-04-09 00:00:00 9.1 4 Noroeste 13 Oeste 0 904.1 0.7 63
2019-04-08 23:00:00 9.9 5 Noroeste 14 Noroeste 0 904.3 1 64
2019-04-08 22:00:00 10.5 3 Oeste 11 Oeste 0 903.9 0.5 64
2019-04-08 21:00:00 11.5 5 Oeste 21 Oeste 0 903.4 -0.1 58
2019-04-08 20:00:00 13 10 Oeste 24 Oeste 0 903.3 -0.5 51
2019-04-08 19:00:00 14.5 13 Oeste 28 Oeste 0 903.4 -0.8 47
2019-04-08 18:00:00 14.2 10 Oeste 25 Noroeste 0 903.5 -1 51
2019-04-08 17:00:00 13.9 11 Noroeste 26 Oeste 0 903.8 -0.9 51
2019-04-08 16:00:00 13.1 8 Noroeste 32 Noroeste 0 904.2 -0.9 67
2019-04-08 15:00:00 11.6 9 Noroeste 27 Oeste 0 904.5 -0.8 77
2019-04-08 14:00:00 11.9 12 Oeste 25 Oeste 0 904.7 -0.6 74
2019-04-08 13:00:00 10.2 9 Noroeste 19 Oeste 0.2 905.1 0.1 84
2019-04-08 12:00:00 9.3 4 Oeste 15 Oeste 0.8 905.3 0.4 91
2019-04-08 11:00:00 8.5 6 Noroeste 15 Oeste 0.8 905.3 0.8 93
2019-04-08 10:00:00 8.1 6 Oeste 14 Oeste 0.2 905 0.7 95
2019-04-08 09:00:00 7.7 5 Oeste 12 Oeste 0.4 904.9 0.6 97
2019-04-08 08:00:00 7.2 0 Calma 4 Sur 0 904.5 0.1 96
2019-04-08 07:00:00 6.9 0 Calma 6 Este 0 904.3 -0.1 96
2019-04-08 06:00:00 6.5 4 Sudeste 7 Sur 0 904.3 -0.6 97
2019-04-08 05:00:00 6.1 3 Sudeste 10 Sudeste 0.2 904.4 -1 97
2019-04-08 04:00:00 5.7 4 Sudeste 8 Sudeste 0.2 904.4 -1.3 97
2019-04-08 03:00:00 5.8 6 Sudeste 9 Sudeste 0 904.9 -0.8 95
2019-04-08 02:00:00 6.2 5 Sur 10 Sudeste 0 905.4 -0.5 86
2019-04-08 01:00:00 6.5 4 Sur 7 Sur 0 905.7 -0.3 81
2019-04-08 00:00:00 6.8 2 Nordeste 6 Noroeste 0 905.7 0.6 77
2019-04-07 23:00:00 7.1 3 Noroeste 16 Noroeste 0 905.9 1.1 72
2019-04-07 22:00:00 7.5 8 Noroeste 21 Oeste 0 906 1.8 68
2019-04-07 21:00:00 7.9 4 Norte 28 Oeste 0 905.1 1.4 65
2019-04-07 20:00:00 9.1 13 Oeste 26 Noroeste 0 904.8 1.4 59
2019-04-07 19:00:00 10.3 9 Noroeste 26 Noroeste 0 904.2 1 45
2019-04-07 18:00:00 11.2 13 Noroeste 30 Oeste 0 903.7 0.5 42
2019-04-07 17:00:00 11.3 7 Noroeste 21 Noroeste 0 903.4 0.6 45
2019-04-07 16:00:00 12 8 Noroeste 25 Noroeste 0 903.2 0.5 42
2019-04-07 15:00:00 10.1 11 Noroeste 29 Noroeste 0 903.2 1.1 46
2019-04-07 14:00:00 9.4 9 Noroeste 31 Noroeste 0 902.8 1.3 49
2019-04-07 13:00:00 8.4 11 Noroeste 31 Noroeste 0 902.7 1.8 56
2019-04-07 12:00:00 7.6 11 Noroeste 31 Oeste 0 902.1 2 60
2019-04-07 11:00:00 5.7 9 Noroeste 32 Noroeste 0 901.5 2.3 79
2019-04-07 10:00:00 3.8 11 Noroeste 30 Noroeste 0 900.9 2.4 83
2019-04-07 09:00:00 3.4 11 Noroeste 24 Noroeste 0 900.1 2 87
2019-04-07 08:00:00 3 13 Noroeste 30 Noroeste 0 899.2 1.3 88
2019-04-07 07:00:00 2.8 4 Norte 26 Noroeste 0.2 898.5 0.7 91
2019-04-07 06:00:00 3.4 6 Noroeste 18 Noroeste 0 898.1 0.5 87
2019-04-07 05:00:00 3.6 6 Noroeste 17 Noroeste 0 897.9 0.1 86
2019-04-07 04:00:00 3.6 7 Noroeste 23 Noroeste 0 897.8 0.1 87
2019-04-07 03:00:00 3.5 9 Noroeste 27 Oeste 0 897.6 0 89
2019-04-07 02:00:00 3.3 8 Oeste 22 Oeste 0 897.8 0.4 88
2019-04-07 01:00:00 3.4 8 Oeste 26 Noroeste 0 897.7 0.8 88
2019-04-07 00:00:00 3.4 6 Noroeste 21 Oeste 0 897.6 1.7 91
2019-04-06 23:00:00 2.5 2 Noroeste 11 Oeste 0 897.4 2 89
2019-04-06 22:00:00 2.3 5 Norte 45 Noroeste 2 896.9 1.9 90
2019-04-06 21:00:00 6.2 13 Oeste 30 Oeste 0 895.9 1.1 64
2019-04-06 20:00:00 7.1 14 Oeste 36 Oeste 0 895.4 0.9 59
2019-04-06 19:00:00 7.2 13 Oeste 33 Oeste 0 895 -0.4 62
2019-04-06 18:00:00 7.2 13 Oeste 34 Oeste 0 894.8 -0.7 65
2019-04-06 17:00:00 6.6 3 Sur 19 Norte 0 894.5 -1 76
2019-04-06 16:00:00 5.1 10 Noroeste 38 Sudoeste 0.2 895.4 -0.1 86
2019-04-06 15:00:00 3.7 8 Oeste 44 Oeste 1 895.5 -0.6 92
2019-04-06 14:00:00 4.8 15 Oeste 32 Sudoeste 0.4 895.5 -0.5 83
2019-04-06 13:00:00 5 9 Oeste 27 Oeste 0 895.5 -0.3 83
2019-04-06 12:00:00 4.5 9 Oeste 25 Oeste 0 896.1 0.5 80
2019-04-06 11:00:00 3.6 13 Oeste 26 Oeste 0 896 1.2 82
2019-04-06 10:00:00 2.9 11 Oeste 25 Oeste 0 895.8 1.7 85
2019-04-06 09:00:00 2.3 9 Oeste 26 Oeste 0 895.6 1.9 88
2019-04-06 08:00:00 2.1 6 Oeste 22 Oeste 0 894.8 1.1 91
2019-04-06 07:00:00 2.1 8 Oeste 22 Oeste 0 894.1 0.3 91
2019-04-06 06:00:00 2.4 6 Oeste 23 Oeste 0 893.7 -0.5 92
2019-04-06 05:00:00 2.3 5 Oeste 13 Oeste 0 893.7 -0.5 93
2019-04-06 04:00:00 2.6 5 Oeste 13 Oeste 0 893.8 -0.2 90
2019-04-06 03:00:00 2.6 4 Noroeste 9 Noroeste 0 894.2 0.3 90
2019-04-06 02:00:00 2.4 2 Nordeste 10 Oeste 0 894.2 0.5 90
2019-04-06 01:00:00 2.3 4 Noroeste 8 Oeste 0 894 0.5 91
2019-04-06 00:00:00 2.6 4 Oeste 11 Noroeste 0 893.9 1.4 89
2019-04-05 23:00:00 2.8 5 Noroeste 13 Noroeste 0 893.7 2.1 87
2019-04-05 22:00:00 2.8 9 Noroeste 22 Oeste 0 893.5 2.7 88
2019-04-05 21:00:00 3 11 Noroeste 24 Noroeste 0.2 892.5 1.7 91
2019-04-05 20:00:00 2.5 3 Oeste 38 Oeste 1.8 891.6 0 90
2019-04-05 19:00:00 5.5 10 Sur 22 Sur 0 890.8 -1 84
2019-04-05 18:00:00 5.3 10 Sudoeste 21 Sudoeste 0 890.8 -1.5 85
2019-04-05 17:00:00 5.2 12 Sur 31 Sudoeste 0.4 891.6 -1 88
2019-04-05 16:00:00 6.1 11 Sur 26 Sudoeste 0.6 891.8 -1.2 85
2019-04-05 15:00:00 6.4 10 Sur 21 Sudoeste 0 892.3 -0.9 78
2019-04-05 14:00:00 6 13 Sur 26 Sur 0.4 892.6 -0.4 81
2019-04-05 13:00:00 6.1 11 Sudoeste 23 Sur 0.2 893 0 84
2019-04-05 12:00:00 6.8 12 Sudoeste 24 Sudoeste 0 893.2 -0.2 73
2019-04-05 11:00:00 6.2 11 Sur 28 Sudoeste 0 893 -0.5 75
2019-04-05 10:00:00 6 13 Sudoeste 23 Sudoeste 0 893 -0.2 76
2019-04-05 09:00:00 5.2 10 Sudoeste 24 Sudoeste 0 893.4 0.3 76
2019-04-05 08:00:00 5.4 10 Sudoeste 20 Sudoeste 0 893.5 0.4 69
2019-04-05 07:00:00 5.8 8 Sur 16 Sudeste 0 893.2 -0.1 65
2019-04-05 06:00:00 6.1 6 Sur 13 Sur 0 893.1 -0.4 64
2019-04-05 05:00:00 6.4 8 Sur 16 Sur 0 893.1 -0.3 68
2019-04-05 04:00:00 6.5 9 Sur 17 Sur 0 893.3 -0.2 77
2019-04-05 03:00:00 6.8 10 Sur 20 Sudeste 0 893.5 -0.1 79
2019-04-05 02:00:00 7.2 7 Sudeste 21 Sudeste 0 893.4 -0.8 79
2019-04-05 01:00:00 7.8 10 Sudeste 18 Sur 0 893.5 -0.6 40
2019-04-05 00:00:00 7.5 9 Sudeste 19 Sudeste 0 893.6 -0.7 37
2019-04-04 23:00:00 6.8 5 Sur 11 Sur 0 894.2 0.1 36
2019-04-04 22:00:00 8 5 Este 10 Sur 0 894.1 -0.1 34
2019-04-04 21:00:00 9.3 5 Sur 19 Oeste 0 894.3 0.1 28
2019-04-04 20:00:00 10.7 10 Sudoeste 23 Sudoeste 0 894.1 -0.7 24
2019-04-04 19:00:00 12.6 11 Sudoeste 22 Sudoeste 0 894.2 -1.2 21
2019-04-04 18:00:00 13.2 6 Sudoeste 19 Oeste 0 894.2 -1.8 24
2019-04-04 17:00:00 12.5 9 Oeste 23 Sudoeste 0 894.8 -1.5 24
2019-04-04 16:00:00 12.1 6 Oeste 20 Sudoeste 0 895.4 -1.3 25
2019-04-04 15:00:00 10.9 5 Norte 18 Noroeste 0 896 -0.9 27
2019-04-04 14:00:00 10.2 4 Noroeste 22 Noroeste 0 896.3 -0.5 31
2019-04-04 13:00:00 8.8 10 Noroeste 23 Noroeste 0 896.7 0.1 28
2019-04-04 12:00:00 6.9 6 Noroeste 17 Oeste 0 896.9 0.7 42
2019-04-04 11:00:00 5.7 4 Norte 20 Nordeste 0 896.8 1.2 44
2019-04-04 10:00:00 4 6 Norte 18 Norte 0 896.6 1.2 48
2019-04-04 09:00:00 0.8 6 Norte 21 Norte 0 896.2 1.1 62
2019-04-04 08:00:00 0.4 5 Norte 16 Nordeste 0 895.6 0.7 67
2019-04-04 07:00:00 1.3 5 Norte 17 Norte 0 895.4 0.5 63
2019-04-04 06:00:00 1.9 6 Norte 15 Norte 0 895.1 -0.1 66
2019-04-04 05:00:00 2.4 5 Noroeste 14 Norte 0 894.9 -0.6 67
2019-04-04 04:00:00 3.2 4 Norte 15 Norte 0 894.9 -1.1 66
2019-04-04 03:00:00 3.9 3 Norte 17 Norte 0 895.2 -0.7 63
2019-04-04 02:00:00 4.7 6 Norte 23 Norte 0 895.5 -0.2 60
2019-04-04 01:00:00 5.6 4 Norte 28 Norte 0 896 0.8 54
2019-04-04 00:00:00 6.2 12 Norte 32 Norte 0 895.9 0.9 53
2019-04-03 23:00:00 7.5 11 Norte 30 Norte 0 895.7 0.7 47
2019-04-03 22:00:00 8.7 7 Noroeste 29 Norte 0 895.2 0.4 40
2019-04-03 21:00:00 9.1 8 Norte 26 Noroeste 0 895 0.4 46
2019-04-03 20:00:00 10.8 9 Norte 31 Norte 0 895 -0.2 44
2019-04-03 19:00:00 12.4 8 Noroeste 32 Noroeste 0 894.8 -1.1 47
2019-04-03 18:00:00 14.1 13 Noroeste 35 Noroeste 0 894.6 -1.8 43
2019-04-03 17:00:00 14.1 13 Noroeste 32 Noroeste 0 895.2 -1.9 42
2019-04-03 16:00:00 14.5 15 Oeste 33 Oeste 0 895.9 -2.1 44
2019-04-03 15:00:00 14.3 15 Oeste 30 Sudoeste 0 896.4 -2.6 45
2019-04-03 14:00:00 14 12 Oeste 32 Oeste 0 897.1 -2.3 50
2019-04-03 13:00:00 12.4 12 Oeste 24 Sudoeste 0 898 -1.9 63
2019-04-03 12:00:00 11.8 6 Sudoeste 12 Sudoeste 0 899 -1.5 72
2019-04-03 11:00:00 9.6 6 Sur 13 Sudoeste 0 899.4 -1.3 79
2019-04-03 10:00:00 6.4 2 Sur 5 Sudoeste 0 899.9 -1.2 94
2019-04-03 09:00:00 4.4 0 Calma 4 Oeste 0 900.5 -1 98
2019-04-03 08:00:00 3.7 2 Sudoeste 4 Sudoeste 0 900.7 -1.4 97
2019-04-03 07:00:00 3.7 3 Oeste 8 Oeste 0 901.1 -1.8 97
2019-04-03 06:00:00 4 2 Noroeste 5 Norte 0 901.5 -2.3 97
2019-04-03 05:00:00 4.5 2 Norte 5 Oeste 0 902.1 -2.1 96
2019-04-03 04:00:00 4.9 2 Sudoeste 5 Sudoeste 0 902.9 -2 96
2019-04-03 03:00:00 4.5 2 Sudoeste 8 Oeste 0 903.8 -1.4 96
2019-04-03 02:00:00 5.1 2 Norte 8 Norte 0 904.2 -1 95
2019-04-03 01:00:00 5.7 0 Calma 7 Nordeste 0 904.9 -0.5 94
2019-04-03 00:00:00 6.4 4 Norte 7 Noroeste 0 905.2 0 91
2019-04-02 23:00:00 7.3 3 Nordeste 6 Norte 0 905.2 -0.4 91
2019-04-02 22:00:00 7.9 2 Noroeste 8 Oeste 0 905.4 -0.3 90
2019-04-02 21:00:00 8.2 0 Calma 14 Nordeste 0.2 905.2 0 87
2019-04-02 20:00:00 8.2 5 Nordeste 26 Nordeste 0.4 905.6 0.2 85
2019-04-02 19:00:00 7.9 17 Nordeste 33 Norte 1.4 905.7 -0.2 87
2019-04-02 18:00:00 9.2 3 Noroeste 16 Nordeste 2.2 905.2 -1 85
2019-04-02 17:00:00 10.2 4 Nordeste 17 Oeste 4.4 905.4 -1.5 74
2019-04-02 16:00:00 11.7 2 Sudoeste 17 Oeste 0.4 905.9 -1.4 69
2019-04-02 15:00:00 11.9 5 Oeste 19 Sudoeste 0.4 906.2 -1.3 71
2019-04-02 14:00:00 12.2 10 Sudoeste 17 Sudoeste 0 906.9 -0.5 67
2019-04-02 13:00:00 12.1 2 Noroeste 12 Oeste 0 907.3 -0.1 73
2019-04-02 12:00:00 11.1 4 Oeste 12 Oeste 0 907.5 0.3 81
2019-04-02 11:00:00 11.1 2 Oeste 10 Sudoeste 0 907.4 0.5 78
2019-04-02 10:00:00 9.4 3 Sudoeste 6 Oeste 0 907.4 0.8 90
2019-04-02 09:00:00 8 3 Sur 6 Sur 0 907.2 0.6 96
2019-04-02 08:00:00 7.8 0 Calma 6 Nordeste 0.2 906.9 -0.1 95
2019-04-02 07:00:00 7.8 0 Calma 4 Este 0 906.6 -0.4 94
2019-04-02 06:00:00 7.7 0 Calma 5 Sudeste 0 906.6 -0.7 93
2019-04-02 05:00:00 8.3 3 Sudeste 6 Sudeste 0 907 -0.6 92
2019-04-02 04:00:00 8.5 3 Sudoeste 9 Sudeste 0 907 -0.8 92
2019-04-02 03:00:00 8.4 4 Sudeste 9 Sudeste 0 907.3 -0.4 93
2019-04-02 02:00:00 8.2 5 Sudeste 13 Sudeste 0 907.6 0.1 93
2019-04-02 01:00:00 8.1 6 Sudeste 14 Sur 0 907.8 1 90
2019-04-02 00:00:00 7.9 4 Sur 9 Sur 0 907.7 1.7 90
2019-04-01 23:00:00 8 0 Calma 8 Sudeste 0 907.5 1.9 87
2019-04-01 22:00:00 8.9 5 Sudeste 12 Sudeste 0 906.8 1.6 89
2019-04-01 21:00:00 9.8 8 Sur 13 Sur 0 906 0.8 86
2019-04-01 20:00:00 10 4 Sudeste 17 Sudoeste 0.4 905.6 0.4 88
2019-04-01 19:00:00 11.8 4 Oeste 10 Oeste 0 905.2 -0.2 76
2019-04-01 18:00:00 12.1 5 Oeste 11 Oeste 0 905.2 -0.6 72
2019-04-01 17:00:00 12.1 5 Sudoeste 14 Sudoeste 0 905.2 -0.7 71
2019-04-01 16:00:00 11.2 10 Sudeste 21 Sudeste 0 905.4 -0.8 80
2019-04-01 15:00:00 11.1 11 Sur 22 Sudeste 0 905.8 -0.3 80
2019-04-01 14:00:00 11.4 15 Sudeste 27 Sudeste 0 905.9 0.1 76
2019-04-01 13:00:00 10.2 13 Sudeste 21 Sudeste 0 906.2 0.8 85
2019-04-01 12:00:00 9.6 11 Sudeste 19 Sudeste 0 906.1 1 87
2019-04-01 11:00:00 8.6 4 Sudeste 7 Sudeste 0.2 905.8 1.2 93
2019-04-01 10:00:00 7.7 2 Sudoeste 6 Oeste 0 905.4 1.1 96
2019-04-01 09:00:00 7.3 4 Oeste 6 Oeste 0.4 905.1 0.9 98
2019-04-01 08:00:00 7.1 0 Calma 6 Oeste 0.2 904.6 0.3 96
2019-04-01 07:00:00 7 3 Oeste 8 Oeste 0.6 904.3 -0.1 97
2019-04-01 06:00:00 7 0 Calma 5 Oeste 0.4 904.2 -0.4 97
2019-04-01 05:00:00 7.1 3 Oeste 6 Oeste 0.4 904.3 -0.5 96
2019-04-01 04:00:00 7.2 2 Sudeste 5 Sudeste 0 904.4 -0.5 94
2019-04-01 03:00:00 7.2 2 Norte 8 Norte 0 904.6 -0.4 93
2019-04-01 02:00:00 7.2 3 Norte 9 Noroeste 0.4 904.8 0 93
2019-04-01 01:00:00 7.4 0 Calma 3 Sur 0.4 904.9 0.3 91
2019-04-01 00:00:00 7.5 0 Calma 6 Sudeste 0 905 1 87
2019-03-31 23:00:00 7.8 4 Nordeste 7 Noroeste 0 904.8 0.9 87
2019-03-31 22:00:00 7.8 3 Oeste 9 Nordeste 0 904.6 0.7 87
2019-03-31 21:00:00 7.7 0 Calma 12 Nordeste 0 904 -0.1 83
2019-03-31 20:00:00 7.9 5 Nordeste 16 Norte 0.4 903.9 -0.3 85
2019-03-31 19:00:00 8.2 5 Nordeste 15 Nordeste 0.2 903.9 -0.6 83
2019-03-31 18:00:00 8.4 4 Este 12 Este 0.6 904.1 -0.9 81
2019-03-31 17:00:00 8.3 4 Este 13 Nordeste 0.2 904.2 -1.1 82
2019-03-31 16:00:00 8.4 5 Nordeste 16 Nordeste 0.2 904.5 -1.1 79
2019-03-31 15:00:00 8.6 6 Este 19 Sudeste 0.8 905 -1 83
2019-03-31 14:00:00 8.6 6 Sudeste 22 Este 0.6 905.3 -0.9 87
2019-03-31 13:00:00 8.4 6 Sudeste 19 Sudeste 0.8 905.6 -0.5 82
2019-03-31 12:00:00 8 5 Sudeste 15 Sudeste 1 906 -0.2 89
2019-03-31 11:00:00 6.3 2 Sudoeste 6 Oeste 2.4 906.2 0.1 92
2019-03-31 10:00:00 6 2 Sudeste 6 Sur 0.6 906.1 0 87
2019-03-31 09:00:00 5.7 3 Este 9 Sur 0 906.2 -0.2 81
2019-03-31 08:00:00 5.8 0 Calma 9 Sudoeste 0.2 906.1 -0.5 81
2019-03-31 07:00:00 6.1 0 Calma 17 Sudeste 1.2 906.1 -1.2 82
2019-03-31 06:00:00 7.4 11 Sudeste 19 Sudeste 0 906.4 -1.5 55
2019-03-31 05:00:00 7.3 3 Sur 7 Sudeste 0 906.6 -1.8 55
2019-03-31 03:00:00 7.2 2 Noroeste 6 Oeste 0 907.9 -1 70
2019-03-31 01:00:00 6.9 3 Sudeste 12 Oeste 0 908.4 -1 72
2019-03-31 00:00:00 7.6 2 Oeste 12 Oeste 0 908.5 -0.7 68
2019-03-30 23:00:00 8.1 3 Oeste 17 Sur 0 908.9 0.1 68
2019-03-30 22:00:00 9 7 Sudeste 22 Sudeste 0 909.4 1.1 65
2019-03-30 21:00:00 10.1 10 Sudeste 31 Sudeste 0 909.2 1.6 61
2019-03-30 20:00:00 11.6 15 Sudeste 31 Sudeste 0 908.8 1.1 56
2019-03-30 19:00:00 14.4 17 Sur 30 Sudeste 0 908.3 0.1 43
2019-03-30 18:00:00 16.9 10 Sur 22 Sur 0 907.6 -1.4 32
2019-03-30 17:00:00 18.2 9 Sudeste 22 Sur 0 907.7 -2.1 30
2019-03-30 16:00:00 18.2 5 Sudeste 25 Sur 0 908.2 -2.7 29
2019-03-30 15:00:00 17.6 7 Sudeste 21 Sur 0 909 -2.7 29
2019-03-30 14:00:00 16.4 8 Sur 27 Sudeste 0 909.8 -2.1 30
2019-03-30 13:00:00 14.8 9 Sudeste 23 Sudeste 0 910.9 -1.2 33
2019-03-30 12:00:00 12.5 13 Sur 25 Sudeste 0 911.7 -0.6 33
2019-03-30 11:00:00 10.7 16 Sudeste 27 Sur 0 911.9 -0.5 38
2019-03-30 10:00:00 9.5 6 Sur 11 Sur 0 912.1 -0.2 44
2019-03-30 09:00:00 5.8 2 Oeste 6 Oeste 0 912.3 0 56
2019-03-30 08:00:00 1.7 0 Calma 4 Sudoeste 0 912.4 -0.2 72
2019-03-30 07:00:00 1.6 0 Calma 5 Sudoeste 0 912.3 -0.6 71
2019-03-30 06:00:00 2.5 3 Sudoeste 5 Oeste 0 912.3 -1.1 67
2019-03-30 05:00:00 2.7 0 Calma 5 Este 0 912.6 -1.1 66
2019-03-30 04:00:00 3.4 0 Calma 4 Este 0 912.9 -1.2 64
2019-03-30 03:00:00 4.1 2 Noroeste 7 Este 0 913.4 -1.1 63
2019-03-30 02:00:00 4.5 3 Este 16 Sudeste 0 913.7 -0.7 62
2019-03-30 01:00:00 5 7 Sur 21 Sur 0 914.1 -0.2 59
2019-03-30 00:00:00 6.1 11 Sur 29 Sudeste 0 914.5 0.6 53
2019-03-29 23:00:00 7.1 12 Sudeste 31 Sudeste 0 914.4 0.9 47
2019-03-29 22:00:00 7.7 13 Sudeste 27 Sur 0 914.3 1 50
2019-03-29 21:00:00 8.7 11 Sudeste 22 Sudeste 0 913.9 0.9 47
2019-03-29 20:00:00 10.2 10 Sudeste 30 Sudeste 0 913.5 0.6 44
2019-03-29 19:00:00 11.8 12 Sudeste 34 Sudeste 0 913.3 0.4 40
2019-03-29 18:00:00 13.2 16 Sudeste 32 Sudeste 0 913 -0.6 32
2019-03-29 17:00:00 15 18 Sur 34 Sur 0 912.9 -1.2 30
2019-03-29 16:00:00 16.3 13 Sudeste 33 Sur 0 912.9 -2 27
2019-03-29 15:00:00 16.2 16 Sur 37 Sur 0 913.6 -1.7 26
2019-03-29 14:00:00 15.1 16 Sur 32 Sudeste 0 914.1 -1.7 24
2019-03-29 13:00:00 14.6 19 Sudeste 34 Sur 0 914.9 -1 24
2019-03-29 12:00:00 13.4 17 Sudeste 36 Sur 0 915.3 -0.7 25
2019-03-29 11:00:00 12.1 17 Sudeste 36 Sur 0 915.8 -0.3 28
2019-03-29 10:00:00 10.5 17 Sudeste 33 Sudeste 0 915.9 0.1 32
2019-03-29 09:00:00 6.5 3 Noroeste 5 Noroeste 0 916 0.4 40
2019-03-29 08:00:00 2.6 0 Calma 4 Norte 0 916.1 0.4 47
2019-03-29 07:00:00 2.6 2 Norte 5 Noroeste 0 915.8 -0.1 44
2019-03-29 06:00:00 3 0 Calma 6 Noroeste 0 915.6 -0.6 45
2019-03-29 05:00:00 3.2 0 Calma 7 Sudeste 0 915.7 -0.7 45
2019-03-29 04:00:00 3.9 2 Sur 7 Este 0 915.9 -0.5 50
2019-03-29 03:00:00 4.7 0 Calma 4 Sudeste 0 916.2 -0.3 50
2019-03-29 02:00:00 5.7 2 Sur 14 Sur 0 916.4 0 47
2019-03-29 01:00:00 6.5 7 Sudeste 14 Sudeste 0 916.4 0.2 45
2019-03-29 00:00:00 7.1 5 Sudeste 16 Sur 0 916.5 0.6 45
2019-03-28 23:00:00 8.5 12 Sudeste 25 Sudeste 0 916.4 1.3 41
2019-03-28 22:00:00 9.5 11 Sudeste 24 Sudeste 0 916.2 1.7 38
2019-03-28 21:00:00 10.9 9 Sudeste 20 Sur 0 915.9 1.9 32
2019-03-28 20:00:00 13.1 10 Sur 21 Sudoeste 0 915.1 1 24
2019-03-28 19:00:00 15.3 10 Sudoeste 22 Oeste 0 914.5 0 20
2019-03-28 18:00:00 18.5 6 Sudoeste 15 Sudoeste 0 914 -1.1 15
2019-03-28 17:00:00 18.6 8 Oeste 18 Sudoeste 0 914.1 -1.6 15
2019-03-28 16:00:00 18.3 5 Sudeste 19 Sudoeste 0 914.5 -1.9 16
2019-03-28 15:00:00 17.7 6 Oeste 19 Oeste 0 915.1 -1.7 15
2019-03-28 14:00:00 16.8 8 Sudoeste 18 Sur 0 915.7 -1.4 16
2019-03-28 13:00:00 16.2 6 Sudoeste 17 Sudeste 0 916.4 -0.9 16
2019-03-28 12:00:00 14.9 6 Sur 16 Sur 0 916.8 -0.6 18
2019-03-28 11:00:00 12.8 5 Sudoeste 9 Sur 0 917.1 -0.3 23
2019-03-28 10:00:00 9.1 3 Sudoeste 6 Sudoeste 0 917.3 0.3 36
2019-03-28 09:00:00 5 3 Sudoeste 5 Sudoeste 0 917.4 0.5 46
2019-03-28 08:00:00 0.5 2 Sudeste 4 Sur 0 917.4 0.8 59
2019-03-28 07:00:00 0.7 2 Sur 6 Oeste 0 917 0.4 58
2019-03-28 06:00:00 1.5 2 Sudeste 4 Sudeste 0 916.9 0.4 55
2019-03-28 05:00:00 2.2 0 Calma 4 Norte 0 916.6 0 53
2019-03-28 04:00:00 2.8 2 Nordeste 7 Noroeste 0 916.6 0 51
2019-03-28 03:00:00 3.9 3 Norte 8 Sudeste 0 916.5 0.3 48
2019-03-28 02:00:00 4.5 3 Sudoeste 5 Sur 0 916.6 0.8 46
2019-03-28 01:00:00 5.6 2 Sudeste 4 Sudoeste 0 916.6 1.2 44
2019-03-28 00:00:00 6.5 0 Calma 9 Sudoeste 0 916.2 1.7 41
2019-03-27 23:00:00 7.9 3 Sudeste 21 Sudeste 0 915.8 2.1 37
2019-03-27 22:00:00 9.2 6 Sudeste 19 Sudeste 0 915.4 2.6 34
2019-03-27 21:00:00 11.4 9 Sudeste 22 Sudeste 0 914.5 2.2 26
2019-03-27 20:00:00 13.5 5 Sudeste 19 Sudoeste 0 913.7 1.5 21
2019-03-27 19:00:00 15.9 9 Sudoeste 20 Sur 0 912.8 0.4 21
2019-03-27 18:00:00 18.1 5 Sudeste 13 Sudoeste 0 912.3 -0.4 22
2019-03-27 17:00:00 18.3 4 Noroeste 15 Noroeste 0 912.2 -1 22
2019-03-27 16:00:00 17.9 8 Noroeste 20 Noroeste 0 912.4 -1.4 22
2019-03-27 15:00:00 17.6 9 Sudoeste 17 Oeste 0 912.7 -1.6 25
2019-03-27 14:00:00 16.2 5 Sudoeste 16 Noroeste 0 913.2 -1.1 27
2019-03-27 13:00:00 14.9 6 Oeste 16 Sudoeste 0 913.8 -0.7 31
2019-03-27 12:00:00 13.6 5 Sudoeste 14 Sudoeste 0 914.3 0.1 34
2019-03-27 11:00:00 11.3 5 Oeste 10 Sudoeste 0 914.3 0.3 39
2019-03-27 10:00:00 8.9 5 Norte 16 Norte 0 914.5 1.1 49
2019-03-27 09:00:00 5.8 6 Norte 12 Norte 0 914.2 1.1 65
2019-03-27 08:00:00 2.8 2 Norte 6 Oeste 0 914 1 79
2019-03-27 07:00:00 2.8 2 Oeste 8 Oeste 0 913.4 0.5 82
2019-03-27 06:00:00 3.5 3 Noroeste 9 Nordeste 0 913.1 0 81
2019-03-27 05:00:00 3.8 3 Este 9 Sudeste 0 913 -0.1 82
2019-03-27 04:00:00 4.2 0 Calma 7 Este 0 912.9 -0.1 80
2019-03-27 03:00:00 4.8 2 Este 5 Este 0 913.1 0.3 78
2019-03-27 02:00:00 5.6 5 Noroeste 10 Noroeste 0 913.1 0.8 77
2019-03-27 01:00:00 5.8 3 Sudeste 9 Sur 0 913 1.2 72
2019-03-27 00:00:00 6.6 2 Este 11 Sudeste 0 912.8 1.6 65